Tahawus, New York
Current Conditions -  °F | °C
As of 10:51 PM on Sunday 23 Nov 2014 (Local Time) from KSLK Reporting Station
Haze Haze  
Wind Chill: 34°   Ceiling: Unl
Heat Index: 34°   Visibility: 1.5mi
Dew Point: 32°   Wind: 0mph
Humidity: 92%   Direction: NA
Pressure: 29.88"   Gusts: NA
Location:  44.0508°N, 74.0396°W
Report Text: KSLK 240351Z AUTO 00000KT 1 1/2SM BR FEW075 01/00 A2988 RMK AO2 SLP132 T00110000
Loading
Personal Weather Stations






























Interactive Weather Map New forecast layout! Learn more

10-Day Weather Forecast

Advertisements
Track Severe Weather on mobile